Time;durP1;ratioP1;P1;durP2;ratioP2;P2;SDS_P1;SDS_P2;PMS_P1;PMS_P2;Temp;Humidity;BMP_temperature;BMP_pressure;BME280_temperature;BME280_humidity;BME280_pressure;Samples;Min_cycle;Max_cycle;Signal;HPM_P1;HPM_P2
2022/12/12 00:01:33;;;;;;;8.23;4.83;;;;;;;-142.25;100.00;58004.16;5035805;28;20041;-59
2022/12/12 00:03:59;;;;;;;7.33;4.33;;;;;;;-142.25;100.00;58004.16;5036146;28;20037;-57
2022/12/12 00:06:25;;;;;;;5.80;3.37;;;;;;;-142.25;100.00;58004.16;5035796;28;20076;-61
2022/12/12 00:08:51;;;;;;;5.40;3.43;;;;;;;-142.25;100.00;58004.16;5028283;28;20518;-60
2022/12/12 00:11:17;;;;;;;7.87;4.47;;;;;;;-142.25;100.00;58004.16;5029460;28;20096;-60
2022/12/12 00:13:43;;;;;;;8.00;4.33;;;;;;;-142.25;100.00;58004.16;5034048;28;20055;-60
2022/12/12 00:16:10;;;;;;;6.93;3.80;;;;;;;-142.25;100.00;58004.16;5033338;28;20041;-60
2022/12/12 00:18:36;;;;;;;6.77;4.57;;;;;;;-142.25;100.00;58004.16;5033635;28;20044;-60
2022/12/12 00:21:05;;;;;;;8.00;3.53;;;;;;;-142.25;100.00;58004.16;5033666;28;20060;-58
2022/12/12 00:23:31;;;;;;;9.70;3.97;;;;;;;-142.25;100.00;58004.16;5030954;28;20420;-59
2022/12/12 00:26:03;;;;;;;8.30;5.20;;;;;;;-142.25;100.00;58004.16;5032968;28;20049;-60
2022/12/12 00:28:29;;;;;;;7.67;3.80;;;;;;;-142.25;100.00;58004.16;5032947;28;20037;-59
2022/12/12 00:30:55;;;;;;;4.83;3.33;;;;;;;-142.25;100.00;58004.16;5032601;28;20056;-58
2022/12/12 00:33:21;;;;;;;6.27;3.27;;;;;;;-142.25;100.00;58004.16;5031134;28;20044;-58
2022/12/12 00:35:54;;;;;;;8.50;4.60;;;;;;;-142.25;100.00;58004.16;5027008;28;20134;-61
2022/12/12 00:38:22;;;;;;;6.33;4.53;;;;;;;-142.25;100.00;58004.16;5025785;28;20037;-62
2022/12/12 00:40:49;;;;;;;7.03;4.33;;;;;;;-142.25;100.00;58004.16;5030635;28;20052;-60
2022/12/12 00:43:14;;;;;;;7.67;5.03;;;;;;;-142.25;100.00;58004.16;5032911;28;20046;-60
2022/12/12 00:45:40;;;;;;;7.97;4.33;;;;;;;-142.25;100.00;58004.16;5030964;28;20053;-59
2022/12/12 00:48:06;;;;;;;9.60;4.37;;;;;;;-142.25;100.00;58004.16;5030388;28;20614;-60
2022/12/12 00:50:33;;;;;;;8.07;3.97;;;;;;;-142.25;100.00;58004.16;5033052;28;20148;-59
2022/12/12 00:52:59;;;;;;;8.60;4.87;;;;;;;-142.25;100.00;58004.16;5031056;28;20044;-59
2022/12/12 00:55:26;;;;;;;6.17;3.97;;;;;;;-142.25;100.00;58004.16;5032534;28;20080;-58
2022/12/12 00:57:52;;;;;;;7.67;4.47;;;;;;;-142.25;100.00;58004.16;5031624;28;20516;-58
2022/12/12 01:00:19;;;;;;;6.97;4.60;;;;;;;-142.25;100.00;58004.16;5032466;28;20108;-60
2022/12/12 01:02:44;;;;;;;7.57;4.57;;;;;;;-142.25;100.00;58004.16;5032127;28;20080;-59
2022/12/12 01:05:10;;;;;;;6.10;3.77;;;;;;;-142.25;100.00;58004.16;5032853;28;20085;-60
2022/12/12 01:07:36;;;;;;;10.50;5.53;;;;;;;-142.25;100.00;58004.16;5031479;28;20069;-62
2022/12/12 01:10:04;;;;;;;7.10;4.37;;;;;;;-142.25;100.00;58004.16;5039415;28;20602;-59
2022/12/12 01:12:31;;;;;;;10.07;5.57;;;;;;;-142.25;100.00;58004.16;5032429;28;20048;-60
2022/12/12 01:14:56;;;;;;;9.67;4.63;;;;;;;-142.25;100.00;58004.16;5032784;28;20045;-59
2022/12/12 01:17:22;;;;;;;7.60;4.73;;;;;;;-142.25;100.00;58004.16;5031717;28;20132;-60
2022/12/12 01:19:48;;;;;;;8.50;4.80;;;;;;;-142.25;100.00;58004.16;5029835;28;20413;-60
2022/12/12 01:22:13;;;;;;;8.73;5.90;;;;;;;-142.25;100.00;58004.16;5032847;28;20603;-59
2022/12/12 01:24:39;;;;;;;9.03;4.77;;;;;;;-142.25;100.00;58004.16;5026042;28;20288;-59
2022/12/12 01:27:05;;;;;;;7.07;4.50;;;;;;;-142.25;100.00;58004.16;5024478;28;20495;-59
2022/12/12 01:29:32;;;;;;;8.53;4.50;;;;;;;-142.25;100.00;58004.16;5029961;28;20041;-58
2022/12/12 01:31:58;;;;;;;5.67;4.13;;;;;;;-142.25;100.00;58004.16;5034610;28;20045;-59
2022/12/12 01:34:24;;;;;;;5.40;3.23;;;;;;;-142.25;100.00;58004.16;5034209;28;20041;-59
2022/12/12 01:36:50;;;;;;;9.73;6.37;;;;;;;-142.25;100.00;58004.16;5035062;28;20052;-59
2022/12/12 01:39:15;;;;;;;7.93;4.23;;;;;;;-142.25;100.00;58004.16;5034636;28;20052;-59
2022/12/12 01:41:41;;;;;;;8.37;4.77;;;;;;;-142.25;100.00;58004.16;5039046;28;20556;-60
2022/12/12 01:44:59;;;;;;;13.57;6.53;;;;;;;-142.25;100.00;58004.16;5028562;28;20053;-59
2022/12/12 01:47:26;;;;;;;10.07;5.40;;;;;;;-142.25;100.00;58004.16;5032105;28;20068;-60
2022/12/12 01:49:56;;;;;;;8.73;4.57;;;;;;;-142.25;100.00;58004.16;5033821;28;20041;-58
2022/12/12 01:52:42;;;;;;;6.67;4.67;;;;;;;-142.25;100.00;58004.16;5032893;28;20045;-59
2022/12/12 01:55:14;;;;;;;8.97;4.93;;;;;;;-142.25;100.00;58004.16;5035848;28;20037;-60
2022/12/12 01:57:45;;;;;;;8.10;4.93;;;;;;;-142.25;100.00;58004.16;5035470;28;20481;-61
2022/12/12 02:00:12;;;;;;;11.90;5.73;;;;;;;-142.25;100.00;58004.16;5035438;28;20535;-59
2022/12/12 02:02:42;;;;;;;6.73;4.90;;;;;;;-142.25;100.00;58004.16;5036836;28;20068;-58
2022/12/12 02:05:18;;;;;;;8.43;5.57;;;;;;;-142.25;100.00;58004.16;5035127;28;20041;-59
2022/12/12 02:07:44;;;;;;;12.97;5.60;;;;;;;-142.25;100.00;58004.16;5033849;28;20037;-60
2022/12/12 02:10:10;;;;;;;9.13;5.77;;;;;;;-142.25;100.00;58004.16;5034730;28;20400;-59
2022/12/12 02:12:35;;;;;;;5.90;3.80;;;;;;;-142.25;100.00;58004.16;5036573;28;20111;-60
2022/12/12 02:15:01;;;;;;;15.27;5.13;;;;;;;-142.25;100.00;58004.16;5033772;28;20381;-59
2022/12/12 02:17:50;;;;;;;5.80;4.07;;;;;;;-142.25;100.00;58004.16;5035644;28;20049;-59
2022/12/12 02:20:50;;;;;;;8.67;4.40;;;;;;;-142.25;100.00;58004.16;5033207;28;20077;-60
2022/12/12 02:23:36;;;;;;;7.67;4.80;;;;;;;-142.25;100.00;58004.16;5033689;28;20155;-61
2022/12/12 02:26:20;;;;;;;;;;;;;;;-142.25;100.00;58004.16;5034561;28;20025;-60
2022/12/12 02:29:07;;;;;;;7.57;4.13;;;;;;;-142.25;100.00;58004.16;5034763;28;19925;-60
2022/12/12 02:31:47;;;;;;;7.77;4.07;;;;;;;-142.25;100.00;58004.16;5035037;28;20035;-59
2022/12/12 02:34:40;;;;;;;5.30;3.17;;;;;;;-142.25;100.00;58004.16;5035168;28;20069;-60
2022/12/12 02:37:28;;;;;;;7.40;4.53;;;;;;;-142.25;100.00;58004.16;5033574;28;20072;-58
2022/12/12 02:40:18;;;;;;;4.57;2.80;;;;;;;-142.25;100.00;58004.16;5033798;28;20032;-61
2022/12/12 02:42:50;;;;;;;4.17;3.13;;;;;;;-142.25;100.00;58004.16;5032332;28;20488;-59
2022/12/12 02:45:33;;;;;;;4.60;3.57;;;;;;;-142.25;100.00;58004.16;5034084;28;20045;-58
2022/12/12 02:48:07;;;;;;;5.97;3.03;;;;;;;-142.25;100.00;58004.16;5034115;28;20044;-59
2022/12/12 02:50:34;;;;;;;6.50;3.70;;;;;;;-142.25;100.00;58004.16;5035423;28;20033;-59
2022/12/12 02:52:59;;;;;;;7.77;3.67;;;;;;;-142.25;100.00;58004.16;5032692;28;20453;-60
2022/12/12 02:55:26;;;;;;;5.37;2.50;;;;;;;-142.25;100.00;58004.16;5033826;28;20049;-60
2022/12/12 02:57:54;;;;;;;7.50;3.33;;;;;;;-142.25;100.00;58004.16;5034485;28;20425;-60
2022/12/12 03:00:20;;;;;;;4.57;3.20;;;;;;;-142.25;100.00;58004.16;5033796;28;20045;-58
2022/12/12 03:09:11;;;;;;;4.43;3.13;;;;;;;-142.25;100.00;58004.16;5035151;28;20516;-59
2022/12/12 03:11:46;;;;;;;7.63;3.30;;;;;;;-142.25;100.00;58004.16;5031270;28;20045;-59
2022/12/12 03:14:25;;;;;;;7.13;4.22;;;;;;;-142.25;100.00;58004.16;5048223;28;20081;-59
2022/12/12 03:17:00;;;;;;;3.90;3.20;;;;;;;-142.25;100.00;58004.16;5033381;28;20041;-59
2022/12/12 03:19:56;;;;;;;5.30;3.67;;;;;;;-142.25;100.00;58004.16;5032872;28;20040;-62
2022/12/12 03:22:43;;;;;;;5.07;3.67;;;;;;;-142.25;100.00;58004.16;5035207;28;20451;-59
2022/12/12 03:25:16;;;;;;;5.20;3.00;;;;;;;-142.25;100.00;58004.16;5033327;28;20112;-58
2022/12/12 03:28:05;;;;;;;4.97;3.27;;;;;;;-142.25;100.00;58004.16;5050446;28;20581;-62
2022/12/12 03:30:38;;;;;;;4.90;3.23;;;;;;;-142.25;100.00;58004.16;5034242;28;20048;-60
2022/12/12 03:33:33;;;;;;;7.87;3.80;;;;;;;-142.25;100.00;58004.16;5035365;28;20514;-60
2022/12/12 03:36:06;;;;;;;5.53;3.40;;;;;;;-142.25;100.00;58004.16;5042578;28;20310;-61
2022/12/12 03:38:44;;;;;;;5.90;3.23;;;;;;;-142.25;100.00;58004.16;5036769;28;20040;-61
2022/12/12 03:41:20;;;;;;;15.47;5.70;;;;;;;-142.25;100.00;58004.16;5034498;28;20048;-61
2022/12/12 03:43:56;;;;;;;6.53;3.33;;;;;;;-142.25;100.00;58004.16;5035000;28;20403;-62
2022/12/12 03:46:39;;;;;;;9.27;4.33;;;;;;;-142.25;100.00;58004.16;5031892;28;20539;-62
2022/12/12 03:49:15;;;;;;;6.73;4.37;;;;;;;-142.25;100.00;58004.16;5032213;28;20080;-60
2022/12/12 03:52:09;;;;;;;8.10;4.07;;;;;;;-142.25;100.00;58004.16;5028369;28;20077;-61
2022/12/12 03:54:42;;;;;;;8.37;4.27;;;;;;;-142.25;100.00;58004.16;5025921;28;21059;-59
2022/12/12 03:57:25;;;;;;;10.07;4.77;;;;;;;-142.25;100.00;58004.16;5033495;28;20065;-60
2022/12/12 03:59:57;;;;;;;6.93;3.83;;;;;;;-142.25;100.00;58004.16;5030959;28;20037;-59
2022/12/12 04:02:40;;;;;;;6.80;4.47;;;;;;;-142.25;100.00;58004.16;5029834;28;20079;-59
2022/12/12 04:05:16;;;;;;;9.47;4.13;;;;;;;-142.25;100.00;58004.16;5033272;28;20064;-60
2022/12/12 04:07:48;;;;;;;6.27;3.93;;;;;;;-142.25;100.00;58004.16;5032698;28;20105;-59
2022/12/12 04:13:08;;;;;;;7.87;4.17;;;;;;;-142.25;100.00;58004.16;5033548;28;20040;-58
2022/12/12 04:16:01;;;;;;;7.03;4.75;;;;;;;-142.25;100.00;58004.16;5040790;28;21003;-58
2022/12/12 04:18:54;;;;;;;6.33;4.50;;;;;;;-142.25;100.00;58004.16;5048948;28;20498;-60
2022/12/12 04:24:47;;;;;;;13.20;4.53;;;;;;;-142.25;100.00;58004.16;5027826;28;20497;-55
2022/12/12 04:27:22;;;;;;;8.37;4.17;;;;;;;-142.25;100.00;58004.16;5028308;28;20058;-58
2022/12/12 04:29:58;;;;;;;7.50;5.22;;;;;;;-142.25;100.00;58004.16;5032530;28;20076;-57
2022/12/12 04:32:29;;;;;;;9.00;4.33;;;;;;;-142.25;100.00;58004.16;5040024;28;20049;-57
2022/12/12 04:35:09;;;;;;;6.40;4.23;;;;;;;-142.25;100.00;58004.16;5047043;28;20672;-57
2022/12/12 04:37:42;;;;;;;7.63;4.57;;;;;;;-142.25;100.00;58004.16;5032432;28;20052;-56
2022/12/12 04:40:11;;;;;;;11.40;5.10;;;;;;;-142.25;100.00;58004.16;5031190;28;20041;-59
2022/12/12 04:42:44;;;;;;;9.77;4.60;;;;;;;-142.25;100.00;58004.16;5030581;28;20053;-55
2022/12/12 04:45:15;;;;;;;7.60;4.67;;;;;;;-142.25;100.00;58004.16;5031548;28;20060;-56
2022/12/12 04:47:46;;;;;;;8.97;4.97;;;;;;;-142.25;100.00;58004.16;5031770;28;20102;-58
2022/12/12 04:50:13;;;;;;;9.00;5.13;;;;;;;-142.25;100.00;58004.16;5032872;28;20049;-59
2022/12/12 04:52:41;;;;;;;11.23;6.83;;;;;;;-142.25;100.00;58004.16;5032719;28;20049;-58
2022/12/12 04:55:13;;;;;;;13.00;8.90;;;;;;;-142.25;100.00;58004.16;5024328;28;20061;-61
2022/12/12 04:57:44;;;;;;;11.00;5.60;;;;;;;-142.25;100.00;58004.16;5033080;28;20045;-57
2022/12/12 05:00:12;;;;;;;9.43;5.07;;;;;;;-142.25;100.00;58004.16;5033150;28;20083;-58
2022/12/12 05:02:49;;;;;;;9.47;5.70;;;;;;;-142.25;100.00;58004.16;5036064;28;20045;-59
2022/12/12 05:05:39;;;;;;;9.13;4.80;;;;;;;-142.25;100.00;58004.16;5028081;28;20041;-57
2022/12/12 05:08:35;;;;;;;10.50;4.33;;;;;;;-142.25;100.00;58004.16;5044428;28;20179;-59
2022/12/12 05:11:01;;;;;;;;;;;;;;;-142.25;100.00;58004.16;5033228;28;20132;-58
2022/12/12 05:13:30;;;;;;;8.23;3.53;;;;;;;-142.25;100.00;58004.16;5034232;28;19968;-58
2022/12/12 05:15:59;;;;;;;11.03;4.73;;;;;;;-142.25;100.00;58004.16;5031346;28;20079;-57
2022/12/12 05:18:24;;;;;;;9.30;5.10;;;;;;;-142.25;100.00;58004.16;5034016;28;20146;-56
2022/12/12 05:20:50;;;;;;;7.20;4.20;;;;;;;-142.25;100.00;58004.16;5033301;28;20087;-59
2022/12/12 05:23:16;;;;;;;9.80;4.00;;;;;;;-142.25;100.00;58004.16;5032752;28;20069;-57
2022/12/12 05:25:42;;;;;;;7.73;3.93;;;;;;;-142.25;100.00;58004.16;5032921;28;20521;-58
2022/12/12 05:28:07;;;;;;;10.33;4.93;;;;;;;-142.25;100.00;58004.16;5031936;28;20051;-59
2022/12/12 05:30:33;;;;;;;5.33;3.30;;;;;;;-142.25;100.00;58004.16;5030379;28;20040;-56
2022/12/12 05:32:59;;;;;;;6.17;4.03;;;;;;;-142.25;100.00;58004.16;5031356;28;20095;-58
2022/12/12 05:35:26;;;;;;;8.40;3.73;;;;;;;-142.25;100.00;58004.16;5031315;28;20049;-57
2022/12/12 05:37:51;;;;;;;7.27;4.03;;;;;;;-142.25;100.00;58004.16;5030815;28;20044;-58
2022/12/12 05:40:18;;;;;;;4.57;3.53;;;;;;;-142.25;100.00;58004.16;5033157;28;20080;-57
2022/12/12 05:42:44;;;;;;;7.50;3.37;;;;;;;-142.25;100.00;58004.16;5030526;28;20045;-57
2022/12/12 05:45:10;;;;;;;8.83;3.73;;;;;;;-142.25;100.00;58004.16;5033077;28;20041;-59
2022/12/12 05:47:36;;;;;;;6.43;3.63;;;;;;;-142.25;100.00;58004.16;5032701;28;20144;-57
2022/12/12 05:50:03;;;;;;;5.20;2.80;;;;;;;-142.25;100.00;58004.16;5031750;28;20063;-57
2022/12/12 05:52:29;;;;;;;6.30;3.80;;;;;;;-142.25;100.00;58004.16;5031147;28;20076;-60
2022/12/12 05:54:55;;;;;;;6.33;4.03;;;;;;;-142.25;100.00;58004.16;5032556;28;20049;-57
2022/12/12 05:57:20;;;;;;;9.93;3.70;;;;;;;-142.25;100.00;58004.16;5031129;28;20594;-58
2022/12/12 05:59:46;;;;;;;4.93;3.23;;;;;;;-142.25;100.00;58004.16;5031558;28;20056;-57
2022/12/12 06:02:12;;;;;;;5.37;3.17;;;;;;;-142.25;100.00;58004.16;5029976;28;20052;-60
2022/12/12 06:04:39;;;;;;;7.43;3.50;;;;;;;-142.25;100.00;58004.16;5031192;28;20056;-59
2022/12/12 06:07:05;;;;;;;5.20;2.50;;;;;;;-142.25;100.00;58004.16;5031715;28;20045;-55
2022/12/12 06:09:31;;;;;;;9.50;3.40;;;;;;;-142.25;100.00;58004.16;5032774;28;20453;-54
2022/12/12 06:11:57;;;;;;;5.60;3.70;;;;;;;-142.25;100.00;58004.16;5031659;28;20068;-54
2022/12/12 06:14:24;;;;;;;4.17;3.10;;;;;;;-142.25;100.00;58004.16;5031850;28;20038;-55
2022/12/12 06:16:50;;;;;;;5.30;3.03;;;;;;;-142.25;100.00;58004.16;5029882;28;20057;-56
2022/12/12 06:19:19;;;;;;;5.80;3.00;;;;;;;-142.25;100.00;58004.16;5035224;28;20048;-57
2022/12/12 06:21:45;;;;;;;5.27;3.23;;;;;;;-142.25;100.00;58004.16;5034896;28;20096;-56
2022/12/12 06:24:11;;;;;;;8.43;3.20;;;;;;;-142.25;100.00;58004.16;5036515;28;20601;-58
2022/12/12 06:26:37;;;;;;;6.47;3.60;;;;;;;-142.25;100.00;58004.16;5035761;28;20045;-58
2022/12/12 06:29:03;;;;;;;5.33;3.00;;;;;;;-142.25;100.00;58004.16;5032991;28;20049;-56
2022/12/12 06:31:29;;;;;;;6.87;4.40;;;;;;;-142.25;100.00;58004.16;5035255;28;20037;-56
2022/12/12 06:33:55;;;;;;;6.93;3.53;;;;;;;-142.25;100.00;58004.16;5033224;28;20041;-54
2022/12/12 06:36:25;;;;;;;9.93;4.30;;;;;;;-142.25;100.00;58004.16;5032119;28;20037;-56
2022/12/12 06:38:59;;;;;;;6.40;2.73;;;;;;;-142.25;100.00;58004.16;5026542;28;20566;-56
2022/12/12 06:41:27;;;;;;;5.83;3.80;;;;;;;-142.25;100.00;58004.16;5035405;28;20094;-60
2022/12/12 06:43:53;;;;;;;5.93;3.77;;;;;;;-142.25;100.00;58004.16;5034332;28;20060;-59
2022/12/12 06:46:24;;;;;;;5.87;3.67;;;;;;;-142.25;100.00;58004.16;5030993;28;20068;-56
2022/12/12 06:48:51;;;;;;;5.33;3.27;;;;;;;-142.25;100.00;58004.16;5029037;28;20036;-57
2022/12/12 06:51:20;;;;;;;6.80;3.73;;;;;;;-142.25;100.00;58004.16;5033908;28;20059;-54
2022/12/12 06:53:47;;;;;;;5.87;3.60;;;;;;;-142.25;100.00;58004.16;5034341;28;20045;-58
2022/12/12 06:56:14;;;;;;;6.87;4.80;;;;;;;-142.25;100.00;58004.16;5032074;28;20045;-58
2022/12/12 06:58:40;;;;;;;5.60;3.67;;;;;;;-142.25;100.00;58004.16;5033077;28;20383;-58
2022/12/12 07:01:07;;;;;;;6.13;4.27;;;;;;;-142.25;100.00;58004.16;5033172;28;20194;-55
2022/12/12 07:03:33;;;;;;;5.30;4.30;;;;;;;-142.25;100.00;58004.16;5033491;28;20041;-56
2022/12/12 07:05:59;;;;;;;8.23;4.47;;;;;;;-142.25;100.00;58004.16;5035031;28;20041;-57
2022/12/12 07:08:27;;;;;;;7.70;4.33;;;;;;;-142.25;100.00;58004.16;5034846;28;20172;-56
2022/12/12 07:10:53;;;;;;;8.77;4.63;;;;;;;-142.25;100.00;58004.16;5029438;28;20049;-57
2022/12/12 07:13:19;;;;;;;6.90;3.57;;;;;;;-142.25;100.00;58004.16;5037842;28;20037;-57
2022/12/12 07:15:47;;;;;;;8.47;4.83;;;;;;;-142.25;100.00;58004.16;5033627;28;20054;-57
2022/12/12 07:18:17;;;;;;;7.17;5.33;;;;;;;-142.25;100.00;58004.16;5032337;28;20041;-58
2022/12/12 07:20:45;;;;;;;7.40;5.27;;;;;;;-142.25;100.00;58004.16;5033312;28;20946;-56
2022/12/12 07:23:11;;;;;;;8.80;4.87;;;;;;;-142.25;100.00;58004.16;5032660;28;20045;-58
2022/12/12 07:25:42;;;;;;;11.10;4.30;;;;;;;-142.25;100.00;58004.16;5033817;28;20032;-55
2022/12/12 07:28:10;;;;;;;8.77;5.00;;;;;;;-142.25;100.00;58004.16;5033358;28;20053;-56
2022/12/12 07:30:44;;;;;;;7.93;4.30;;;;;;;-142.25;100.00;58004.16;5032694;28;20049;-58
2022/12/12 07:33:10;;;;;;;11.63;5.60;;;;;;;-142.25;100.00;58004.16;5033015;28;20037;-58
2022/12/12 07:35:36;;;;;;;8.83;5.10;;;;;;;-142.25;100.00;58004.16;5034138;28;20096;-56
2022/12/12 07:38:03;;;;;;;11.30;4.63;;;;;;;-142.25;100.00;58004.16;5034769;28;20660;-57
2022/12/12 07:40:29;;;;;;;8.00;4.67;;;;;;;-142.25;100.00;58004.16;5033308;28;20529;-55
2022/12/12 07:42:55;;;;;;;6.20;4.03;;;;;;;-142.25;100.00;58004.16;5034242;28;20052;-56
2022/12/12 07:45:21;;;;;;;8.77;4.97;;;;;;;-142.25;100.00;58004.16;5032425;28;20044;-57
2022/12/12 07:47:48;;;;;;;10.13;6.17;;;;;;;-142.25;100.00;58004.16;5032628;28;20200;-59
2022/12/12 07:50:14;;;;;;;6.57;3.30;;;;;;;-142.25;100.00;58004.16;5032068;28;20037;-59
2022/12/12 07:52:39;;;;;;;8.00;5.13;;;;;;;-142.25;100.00;58004.16;5031698;28;20434;-57
2022/12/12 07:55:05;;;;;;;11.33;4.73;;;;;;;-142.25;100.00;58004.16;5031564;28;20056;-58
2022/12/12 07:57:31;;;;;;;9.73;4.60;;;;;;;-142.25;100.00;58004.16;5030393;28;20041;-58
2022/12/12 07:59:57;;;;;;;5.57;3.93;;;;;;;-142.25;100.00;58004.16;5034246;28;20510;-59
2022/12/12 08:02:22;;;;;;;6.23;3.90;;;;;;;-142.25;100.00;58004.16;5028967;28;20048;-55
2022/12/12 08:04:48;;;;;;;8.30;4.70;;;;;;;-142.25;100.00;58004.16;5032690;28;21023;-56
2022/12/12 08:07:14;;;;;;;8.73;4.50;;;;;;;-142.25;100.00;58004.16;5027350;28;20060;-58
2022/12/12 08:09:40;;;;;;;6.97;4.70;;;;;;;-142.25;100.00;58004.16;5033233;28;20045;-59
2022/12/12 08:12:06;;;;;;;7.53;4.87;;;;;;;-142.25;100.00;58004.16;5036175;28;20405;-58
2022/12/12 08:14:32;;;;;;;7.27;4.70;;;;;;;-142.25;100.00;58004.16;5033424;28;20136;-57
2022/12/12 08:16:58;;;;;;;9.53;5.50;;;;;;;-142.25;100.00;58004.16;5034298;28;20103;-57
2022/12/12 08:19:23;;;;;;;9.80;5.87;;;;;;;-142.25;100.00;58004.16;5033017;28;20377;-62
2022/12/12 08:21:49;;;;;;;6.37;4.00;;;;;;;-142.25;100.00;58004.16;5045120;28;20602;-56
2022/12/12 08:24:15;;;;;;;8.47;4.87;;;;;;;-142.25;100.00;58004.16;5037630;28;20052;-58
2022/12/12 08:26:42;;;;;;;5.50;3.77;;;;;;;-142.25;100.00;58004.16;5037295;28;20124;-57
2022/12/12 08:29:08;;;;;;;9.27;4.27;;;;;;;-142.25;100.00;58004.16;5035217;28;20472;-59
2022/12/12 08:31:36;;;;;;;9.43;4.23;;;;;;;-142.25;100.00;58004.16;5032172;28;20052;-56
2022/12/12 08:34:02;;;;;;;7.73;4.17;;;;;;;-142.25;100.00;58004.16;5032702;28;20060;-59
2022/12/12 08:36:30;;;;;;;9.23;4.07;;;;;;;-142.25;100.00;58004.16;5050669;28;20251;-59
2022/12/12 08:39:07;;;;;;;9.80;5.37;;;;;;;-142.25;100.00;58004.16;5036792;28;20435;-55
2022/12/12 08:41:35;;;;;;;5.40;4.20;;;;;;;-142.25;100.00;58004.16;5038236;28;20053;-57
2022/12/12 08:44:01;;;;;;;7.13;4.00;;;;;;;-142.25;100.00;58004.16;5040655;28;20248;-59
2022/12/12 08:46:28;;;;;;;9.47;4.60;;;;;;;-142.25;100.00;58004.16;5035156;28;20052;-56
2022/12/12 08:48:53;;;;;;;6.73;4.13;;;;;;;-142.25;100.00;58004.16;5034538;28;20060;-57
2022/12/12 08:51:19;;;;;;;6.30;4.10;;;;;;;-142.25;100.00;58004.16;5035436;28;20045;-62
2022/12/12 08:53:49;;;;;;;6.37;4.07;;;;;;;-142.25;100.00;58004.16;5034383;28;20048;-56
2022/12/12 08:56:16;;;;;;;9.03;4.63;;;;;;;-142.25;100.00;58004.16;5034637;28;20072;-58
2022/12/12 08:58:42;;;;;;;11.17;5.63;;;;;;;-142.25;100.00;58004.16;5032393;28;20049;-56
2022/12/12 09:01:16;;;;;;;8.50;4.10;;;;;;;-142.25;100.00;58004.16;5034370;28;20132;-57
2022/12/12 09:03:42;;;;;;;6.20;4.63;;;;;;;-142.25;100.00;58004.16;5034483;28;20048;-59
2022/12/12 09:06:09;;;;;;;9.57;4.73;;;;;;;-142.25;100.00;58004.16;5035479;28;20395;-55
2022/12/12 09:08:35;;;;;;;11.07;4.50;;;;;;;-142.25;100.00;58004.16;5049167;28;20045;-56
2022/12/12 09:11:02;;;;;;;6.20;4.10;;;;;;;-142.25;100.00;58004.16;5029971;28;20064;-55
2022/12/12 09:13:29;;;;;;;6.87;4.03;;;;;;;-142.25;100.00;58004.16;5024244;28;20080;-55
2022/12/12 09:15:54;;;;;;;8.13;4.73;;;;;;;-142.25;100.00;58004.16;5013537;28;20056;-54
2022/12/12 09:18:20;;;;;;;8.67;3.80;;;;;;;-142.25;100.00;58004.16;5014116;28;20057;-55
2022/12/12 09:20:50;;;;;;;7.93;4.43;;;;;;;-142.25;100.00;58004.16;5025087;28;20048;-55
2022/12/12 09:23:17;;;;;;;6.37;3.20;;;;;;;-142.25;100.00;58004.16;5029482;28;20071;-55
2022/12/12 09:25:43;;;;;;;7.33;3.83;;;;;;;-142.25;100.00;58004.16;5026914;28;20527;-52
2022/12/12 09:28:13;;;;;;;8.20;4.70;;;;;;;-142.25;100.00;58004.16;5027741;28;20207;-53
2022/12/12 09:30:40;;;;;;;6.10;3.57;;;;;;;-142.25;100.00;58004.16;5034448;28;20029;-55
2022/12/12 09:33:06;;;;;;;8.87;4.40;;;;;;;-142.25;100.00;58004.16;5032470;28;20477;-53
2022/12/12 09:35:32;;;;;;;8.00;3.77;;;;;;;-142.25;100.00;58004.16;5028486;28;20045;-54
2022/12/12 09:37:57;;;;;;;7.27;3.73;;;;;;;-142.25;100.00;58004.16;5035455;28;20388;-56
2022/12/12 09:40:30;;;;;;;7.13;4.43;;;;;;;-142.25;100.00;58004.16;5025136;28;20251;-56
2022/12/12 09:42:59;;;;;;;8.50;5.07;;;;;;;-142.25;100.00;58004.16;5028636;28;20037;-58
2022/12/12 09:45:25;;;;;;;9.40;4.47;;;;;;;-142.25;100.00;58004.16;5033127;28;20045;-54
2022/12/12 09:47:59;;;;;;;11.67;4.60;;;;;;;-142.25;100.00;58004.16;5032310;28;20519;-57
2022/12/12 09:50:49;;;;;;;7.80;4.83;;;;;;;-142.25;100.00;58004.16;5031646;28;20092;-55
2022/12/12 09:53:20;;;;;;;5.47;3.60;;;;;;;-142.25;100.00;58004.16;5034613;28;20115;-55
2022/12/12 09:56:10;;;;;;;6.43;3.80;;;;;;;-142.25;100.00;58004.16;5036155;28;20500;-55
2022/12/12 09:58:49;;;;;;;7.00;3.93;;;;;;;-142.25;100.00;58004.16;5037630;28;20076;-56
2022/12/12 10:01:38;;;;;;;5.37;3.60;;;;;;;-142.25;100.00;58004.16;5033403;28;20049;-54
2022/12/12 10:04:34;;;;;;;11.20;4.80;;;;;;;-142.25;100.00;58004.16;5030533;28;20060;-55
2022/12/12 10:07:13;;;;;;;5.07;3.67;;;;;;;-142.25;100.00;58004.16;5035385;28;20037;-54
2022/12/12 10:09:41;;;;;;;5.37;3.57;;;;;;;-142.25;100.00;58004.16;5033434;28;20480;-56
2022/12/12 10:12:13;;;;;;;5.93;3.67;;;;;;;-142.25;100.00;58004.16;5035098;28;20120;-55
2022/12/12 10:14:47;;;;;;;8.27;3.63;;;;;;;-142.25;100.00;58004.16;5035057;28;20103;-56
2022/12/12 10:17:18;;;;;;;9.77;4.30;;;;;;;-142.25;100.00;58004.16;5038493;28;20041;-59
2022/12/12 10:19:54;;;;;;;5.50;3.13;;;;;;;-142.25;100.00;58004.16;5035026;28;20041;-57
2022/12/12 10:22:49;;;;;;;6.47;3.30;;;;;;;-142.25;100.00;58004.16;5034857;28;20037;-57
2022/12/12 10:25:20;;;;;;;6.50;2.95;;;;;;;-142.25;100.00;58004.16;5024409;28;20065;-59
2022/12/12 10:27:51;;;;;;;7.07;3.63;;;;;;;-142.25;100.00;58004.16;5024031;28;20544;-60
2022/12/12 10:30:18;;;;;;;6.50;3.60;;;;;;;-142.25;100.00;58004.16;5022699;28;20640;-60
2022/12/12 10:33:13;;;;;;;7.57;4.10;;;;;;;-142.25;100.00;58004.16;5025677;28;20049;-54
2022/12/12 10:35:58;;;;;;;7.77;3.33;;;;;;;-142.25;100.00;58004.16;4929011;29;20200;-57
2022/12/12 10:38:42;;;;;;;7.38;3.50;;;;;;;-142.25;100.00;58004.16;4930364;29;20051;-56
2022/12/12 10:41:19;;;;;;;4.87;2.90;;;;;;;-142.25;100.00;58004.16;4927889;29;20058;-60
2022/12/12 10:43:57;;;;;;;4.43;3.33;;;;;;;-142.25;100.00;58004.16;4929197;29;20156;-55
2022/12/12 10:47:03;;;;;;;6.67;3.73;;;;;;;-142.25;100.00;58004.16;4928341;29;20183;-58
2022/12/12 10:49:30;;;;;;;7.90;4.37;;;;;;;-142.25;100.00;58004.16;4919245;29;20055;-57
2022/12/12 10:51:57;;;;;;;7.33;4.17;;;;;;;-142.25;100.00;58004.16;4927233;29;20146;-57
2022/12/12 10:54:26;;;;;;;6.03;3.47;;;;;;;-142.25;100.00;58004.16;4927152;29;20497;-57
2022/12/12 10:57:04;;;;;;;9.20;4.73;;;;;;;-142.25;100.00;58004.16;4928319;29;20119;-57
2022/12/12 10:59:30;;;;;;;5.50;3.90;;;;;;;-142.25;100.00;58004.16;4926076;29;20047;-56
2022/12/12 11:01:58;;;;;;;6.63;3.90;;;;;;;-142.25;100.00;58004.16;4950184;28;20073;-60
2022/12/12 11:04:26;;;;;;;7.03;4.53;;;;;;;-142.25;100.00;58004.16;4964270;28;20039;-57
2022/12/12 11:06:54;;;;;;;8.47;4.57;;;;;;;-142.25;100.00;58004.16;4939129;28;20039;-57
2022/12/12 11:09:24;;;;;;;6.40;4.20;;;;;;;-142.25;100.00;58004.16;4965328;28;20046;-59
2022/12/12 11:12:19;;;;;;;9.73;4.20;;;;;;;-142.25;100.00;58004.16;4990910;28;20065;-58
2022/12/12 11:14:51;;;;;;;6.05;4.38;;;;;;;-142.25;100.00;58004.16;5034206;28;20449;-57
2022/12/12 11:17:25;;;;;;;6.73;4.07;;;;;;;-142.25;100.00;58004.16;5035176;28;20056;-61
2022/12/12 11:19:56;;;;;;;9.40;5.67;;;;;;;-142.25;100.00;58004.16;5035379;28;20526;-58
2022/12/12 11:22:23;;;;;;;7.00;4.27;;;;;;;-142.25;100.00;58004.16;5036061;28;20045;-56
2022/12/12 11:24:50;;;;;;;6.30;4.10;;;;;;;-142.25;100.00;58004.16;5033424;28;20150;-59
2022/12/12 11:27:24;;;;;;;7.97;3.97;;;;;;;-142.25;100.00;58004.16;5033052;28;20041;-58
2022/12/12 11:29:59;;;;;;;8.20;3.75;;;;;;;-142.25;100.00;58004.16;5029447;28;20040;-59
2022/12/12 11:32:40;;;;;;;6.25;4.32;;;;;;;-142.25;100.00;58004.16;5032138;28;20049;-59
2022/12/12 11:35:38;;;;;;;8.50;4.37;;;;;;;-142.25;100.00;58004.16;5034032;28;20045;-58
2022/12/12 11:38:16;;;;;;;6.53;4.13;;;;;;;-142.25;100.00;58004.16;5034446;28;20049;-58
2022/12/12 11:40:43;;;;;;;6.73;4.13;;;;;;;-142.25;100.00;58004.16;5033505;28;20503;-58